createdAt,value
2019-04-07T00:01:07.121Z,6.75
2019-04-07T00:03:35.616Z,6.60
2019-04-07T00:06:04.164Z,8.85
2019-04-07T00:08:32.935Z,8.35
2019-04-07T00:11:01.377Z,6.72
2019-04-07T00:13:30.950Z,10.98
2019-04-07T00:15:59.335Z,9.58
2019-04-07T00:18:27.552Z,9.00
2019-04-07T00:20:55.800Z,8.40
2019-04-07T00:23:24.053Z,8.00
2019-04-07T00:25:52.316Z,10.72
2019-04-07T00:28:21.132Z,8.98
2019-04-07T00:30:49.951Z,8.38
2019-04-07T00:33:18.349Z,8.85
2019-04-07T00:35:46.871Z,9.35
2019-04-07T00:38:15.233Z,8.35
2019-04-07T00:40:43.783Z,7.62
2019-04-07T00:43:12.146Z,8.55
2019-04-07T00:45:40.575Z,6.60
2019-04-07T00:48:09.052Z,8.28
2019-04-07T00:50:37.408Z,8.43
2019-04-07T00:53:05.728Z,7.30
2019-04-07T00:55:34.297Z,8.70
2019-04-07T00:58:02.662Z,8.90
2019-04-07T01:00:32.575Z,8.40
2019-04-07T01:03:00.793Z,7.95
2019-04-07T01:05:36.699Z,9.05
2019-04-07T01:07:59.158Z,11.03
2019-04-07T01:10:27.489Z,8.75
2019-04-07T01:12:55.719Z,8.78
2019-04-07T01:15:24.102Z,7.42
2019-04-07T01:17:52.445Z,8.65
2019-04-07T01:20:20.855Z,11.35
2019-04-07T01:22:49.491Z,8.28
2019-04-07T01:25:18.415Z,12.00
2019-04-07T01:27:46.694Z,9.30
2019-04-07T01:30:15.109Z,9.65
2019-04-07T01:32:43.413Z,7.60
2019-04-07T01:35:12.312Z,7.37
2019-04-07T01:37:40.729Z,12.43
2019-04-07T01:40:09.247Z,10.98
2019-04-07T01:42:39.749Z,11.03
2019-04-07T01:45:25.962Z,9.80
2019-04-07T01:48:02.034Z,11.83
2019-04-07T01:50:50.553Z,11.15
2019-04-07T01:53:35.627Z,13.30
2019-04-07T01:56:15.628Z,10.85
2019-04-07T01:58:58.292Z,9.63
2019-04-07T02:01:28.520Z,8.95
2019-04-07T02:04:04.951Z,10.72
2019-04-07T02:06:51.719Z,10.82
2019-04-07T02:09:21.624Z,8.93
2019-04-07T02:11:51.537Z,10.53
2019-04-07T02:14:27.116Z,11.05
2019-04-07T02:16:57.796Z,12.82
2019-04-07T02:19:34.413Z,10.93
2019-04-07T02:22:04.639Z,11.75
2019-04-07T02:24:49.875Z,10.72
2019-04-07T02:27:20.449Z,13.80
2019-04-07T02:29:51.172Z,11.22
2019-04-07T02:32:24.546Z,11.28
2019-04-07T02:34:54.561Z,9.73
2019-04-07T02:37:24.566Z,10.53
2019-04-07T02:40:09.734Z,10.80
2019-04-07T02:42:51.689Z,10.95
2019-04-07T02:45:24.613Z,16.37
2019-04-07T02:47:57.758Z,11.15
2019-04-07T02:50:31.621Z,11.48
2019-04-07T02:53:01.859Z,12.75
2019-04-07T02:55:37.930Z,15.95
2019-04-07T02:58:10.623Z,12.40
2019-04-07T03:00:43.257Z,14.78
2019-04-07T03:03:25.164Z,16.05
2019-04-07T03:05:55.041Z,17.40
2019-04-07T03:08:27.786Z,17.27
2019-04-07T03:11:07.524Z,15.88
2019-04-07T03:13:54.092Z,18.80
2019-04-07T03:16:24.431Z,18.67
2019-04-07T03:18:54.783Z,13.05
2019-04-07T03:21:40.971Z,14.45
2019-04-07T03:24:19.482Z,15.35
2019-04-07T03:26:53.356Z,12.85
2019-04-07T03:29:29.137Z,11.28
2019-04-07T03:32:18.794Z,12.78
2019-04-07T03:35:05.383Z,12.47
2019-04-07T03:37:43.020Z,14.55
2019-04-07T03:40:16.907Z,15.60
2019-04-07T03:42:53.056Z,15.05
2019-04-07T03:45:22.938Z,16.75
2019-04-07T03:48:02.172Z,16.02
2019-04-07T03:50:48.716Z,14.63
2019-04-07T03:53:18.595Z,11.83
2019-04-07T03:55:51.703Z,12.93
2019-04-07T03:58:24.557Z,10.73
2019-04-07T04:01:16.065Z,12.78
2019-04-07T04:03:59.017Z,13.18
2019-04-07T04:06:30.076Z,14.65
2019-04-07T04:09:17.938Z,12.47
2019-04-07T04:11:53.659Z,12.88
2019-04-07T04:14:26.289Z,12.10
2019-04-07T04:16:54.520Z,11.70
2019-04-07T04:19:22.755Z,11.28
2019-04-07T04:21:51.233Z,10.38
2019-04-07T04:24:19.988Z,12.43
2019-04-07T04:26:49.980Z,11.68
2019-04-07T04:29:18.863Z,10.78
2019-04-07T04:31:47.475Z,12.70
2019-04-07T04:34:15.696Z,15.28
2019-04-07T04:36:44.695Z,13.50
2019-04-07T04:39:15.765Z,11.28
2019-04-07T04:41:43.124Z,14.28
2019-04-07T04:44:11.353Z,11.65
2019-04-07T04:46:39.578Z,12.28
2019-04-07T04:49:07.825Z,12.73
2019-04-07T04:51:39.263Z,13.60
2019-04-07T04:54:06.982Z,11.88
2019-04-07T04:56:36.116Z,12.28
2019-04-07T04:59:04.575Z,12.13
2019-04-07T05:01:33.125Z,12.95
2019-04-07T05:04:01.417Z,15.00
2019-04-07T05:06:29.731Z,14.93
2019-04-07T05:08:58.114Z,14.40
2019-04-07T05:11:26.485Z,12.60
2019-04-07T05:13:54.790Z,12.13
2019-04-07T05:16:23.134Z,12.13
2019-04-07T05:18:51.843Z,15.35
2019-04-07T05:21:20.707Z,14.83
2019-04-07T05:23:49.093Z,16.70
2019-04-07T05:26:17.329Z,15.15
2019-04-07T05:28:45.937Z,12.28
2019-04-07T05:31:14.509Z,16.15
2019-04-07T05:33:43.278Z,13.72
2019-04-07T05:36:12.199Z,12.93
2019-04-07T05:38:41.009Z,13.78
2019-04-07T05:41:09.342Z,14.53
2019-04-07T05:43:38.135Z,14.55
2019-04-07T05:46:08.049Z,13.62
2019-04-07T05:48:37.102Z,14.45
2019-04-07T05:51:05.556Z,15.48
2019-04-07T05:53:34.487Z,13.32
2019-04-07T05:56:03.160Z,14.98
2019-04-07T05:58:32.231Z,16.17
2019-04-07T06:01:00.590Z,16.15
2019-04-07T06:03:28.826Z,16.17
2019-04-07T06:05:57.891Z,14.30
2019-04-07T06:08:32.597Z,12.43
2019-04-07T06:11:00.033Z,13.70
2019-04-07T06:13:26.243Z,15.85
2019-04-07T06:15:54.530Z,14.15
2019-04-07T06:18:22.895Z,14.65
2019-04-07T06:20:52.013Z,12.60
2019-04-07T06:23:24.235Z,12.25
2019-04-07T06:25:51.049Z,14.90
2019-04-07T06:28:19.494Z,13.75
2019-04-07T06:30:48.309Z,12.10
2019-04-07T06:33:17.397Z,12.23
2019-04-07T06:35:47.343Z,14.10
2019-04-07T06:38:16.624Z,15.85
2019-04-07T06:40:45.826Z,15.32
2019-04-07T06:43:14.576Z,12.85
2019-04-07T06:45:45.296Z,15.95
2019-04-07T06:48:14.891Z,14.00
2019-04-07T06:50:54.797Z,13.93
2019-04-07T06:53:22.153Z,15.48
2019-04-07T06:56:05.206Z,17.40
2019-04-07T06:58:38.783Z,10.50
2019-04-07T07:01:13.288Z,15.00
2019-04-07T07:03:59.835Z,14.10
2019-04-07T07:06:35.742Z,17.82
2019-04-07T07:09:08.541Z,13.90
2019-04-07T07:11:41.398Z,16.75
2019-04-07T07:14:34.773Z,14.25
2019-04-07T07:17:10.806Z,15.08
2019-04-07T07:20:00.148Z,15.70
2019-04-07T07:22:29.002Z,16.97
2019-04-07T07:25:00.002Z,16.90
2019-04-07T07:27:27.396Z,12.25
2019-04-07T07:29:56.537Z,13.58
2019-04-07T07:32:24.942Z,15.38
2019-04-07T07:34:54.098Z,15.00
2019-04-07T07:37:24.847Z,16.12
2019-04-07T07:39:52.456Z,13.48
2019-04-07T07:42:23.270Z,15.28
2019-04-07T07:44:51.364Z,13.62
2019-04-07T07:47:20.731Z,13.10
2019-04-07T07:49:50.947Z,14.28
2019-04-07T07:52:21.571Z,13.30
2019-04-07T07:54:49.558Z,12.73
2019-04-07T07:57:21.027Z,14.00
2019-04-07T07:59:47.940Z,13.32
2019-04-07T08:02:19.411Z,16.27
2019-04-07T08:04:46.142Z,14.18
2019-04-07T08:07:16.353Z,13.10
2019-04-07T08:09:44.475Z,13.93
2019-04-07T08:12:12.773Z,14.45
2019-04-07T08:14:41.472Z,12.98
2019-04-07T08:17:10.524Z,14.63
2019-04-07T08:19:42.249Z,13.43
2019-04-07T08:22:08.833Z,12.18
2019-04-07T08:24:37.255Z,15.32
2019-04-07T08:27:06.361Z,16.52
2019-04-07T08:29:37.184Z,13.58
2019-04-07T08:32:05.356Z,13.00
2019-04-07T08:34:33.784Z,12.50
2019-04-07T08:37:02.775Z,12.53
2019-04-07T08:39:34.990Z,15.95
2019-04-07T08:42:03.711Z,14.13
2019-04-07T08:44:32.048Z,12.50
2019-04-07T08:47:00.356Z,13.62
2019-04-07T08:49:31.074Z,12.80
2019-04-07T08:51:59.029Z,11.63
2019-04-07T08:54:28.628Z,15.20
2019-04-07T08:56:58.246Z,14.98
2019-04-07T08:59:27.056Z,13.65
2019-04-07T09:01:55.859Z,14.80
2019-04-07T09:04:24.264Z,14.80
2019-04-07T09:06:52.616Z,16.00
2019-04-07T09:09:31.333Z,16.85
2019-04-07T09:11:53.938Z,14.63
2019-04-07T09:14:22.159Z,16.52
2019-04-07T09:17:04.642Z,16.77
2019-04-07T09:19:38.505Z,18.48
2019-04-07T09:22:29.426Z,17.12
2019-04-07T09:25:15.057Z,21.02
2019-04-07T09:27:46.081Z,18.65
2019-04-07T09:30:16.740Z,20.95
2019-04-07T09:33:03.362Z,22.10
2019-04-07T09:35:49.800Z,22.82
2019-04-07T09:38:24.970Z,23.07
2019-04-07T09:41:10.765Z,23.50
2019-04-07T09:43:57.190Z,23.18
2019-04-07T09:46:48.375Z,25.95
2019-04-07T09:49:24.778Z,29.95
2019-04-07T09:51:58.246Z,25.45
2019-04-07T09:54:31.123Z,28.98
2019-04-07T09:57:16.875Z,23.98
2019-04-07T09:59:50.861Z,24.12
2019-04-07T10:02:35.579Z,26.27
2019-04-07T10:05:23.971Z,31.02
2019-04-07T10:08:12.516Z,22.05
2019-04-07T10:11:00.678Z,31.60
2019-04-07T10:13:30.727Z,30.17
2019-04-07T10:16:01.032Z,34.50
2019-04-07T10:18:47.501Z,31.50
2019-04-07T10:21:36.125Z,31.45
2019-04-07T10:24:07.452Z,32.08
2019-04-07T10:26:53.546Z,35.85
2019-04-07T10:29:23.640Z,28.62
2019-04-07T10:32:11.454Z,30.27
2019-04-07T10:34:47.417Z,37.45
2019-04-07T10:37:23.182Z,33.63
2019-04-07T10:39:55.957Z,35.83
2019-04-07T10:42:41.229Z,34.08
2019-04-07T10:45:20.703Z,34.75
2019-04-07T10:47:53.562Z,35.55
2019-04-07T10:50:40.475Z,41.18
2019-04-07T10:53:27.313Z,36.35
2019-04-07T10:55:57.518Z,41.50
2019-04-07T10:58:44.008Z,42.55
2019-04-07T11:01:14.483Z,40.92
2019-04-07T11:03:57.591Z,38.45
2019-04-07T11:06:43.979Z,38.95
2019-04-07T11:09:17.772Z,40.88
2019-04-07T11:11:53.892Z,36.55
2019-04-07T11:14:29.625Z,36.50
2019-04-07T11:17:02.487Z,35.70
2019-04-07T11:19:41.392Z,35.55
2019-04-07T11:22:27.526Z,35.88
2019-04-07T11:25:09.764Z,37.80
2019-04-07T11:27:58.271Z,39.92
2019-04-07T11:30:45.431Z,39.50
2019-04-07T11:33:34.096Z,39.70
2019-04-07T11:36:04.567Z,36.90
2019-04-07T11:38:51.585Z,37.63
2019-04-07T11:41:24.411Z,39.25
2019-04-07T11:43:59.304Z,39.45
2019-04-07T11:46:46.418Z,38.38
2019-04-07T11:49:19.494Z,40.25
2019-04-07T11:51:55.565Z,37.13
2019-04-07T11:54:26.236Z,37.38
2019-04-07T11:56:56.552Z,40.23
2019-04-07T11:59:43.798Z,41.08
2019-04-07T12:02:30.821Z,40.28
2019-04-07T12:05:13.066Z,36.58
2019-04-07T12:07:59.667Z,36.73
2019-04-07T12:10:30.090Z,40.38
2019-04-07T12:13:00.340Z,42.40
2019-04-07T12:15:46.650Z,42.70
2019-04-07T12:18:32.934Z,41.55
2019-04-07T12:21:20.736Z,44.18
2019-04-07T12:23:44.338Z,40.75
2019-04-07T12:26:20.566Z,40.12
2019-04-07T12:28:51.471Z,102.92
2019-04-07T12:31:22.731Z,41.60
2019-04-07T12:33:55.489Z,38.02
2019-04-07T12:36:32.120Z,35.20
2019-04-07T12:39:02.881Z,34.25
2019-04-07T12:41:35.778Z,37.08
2019-04-07T12:44:08.649Z,33.83
2019-04-07T12:46:38.773Z,34.35
2019-04-07T12:49:12.203Z,37.55
2019-04-07T12:51:42.945Z,33.45
2019-04-07T12:54:22.212Z,39.48
2019-04-07T12:57:08.669Z,33.98
2019-04-07T12:59:48.145Z,33.67
2019-04-07T13:02:20.043Z,33.53
2019-04-07T13:07:44.285Z,30.72
2019-04-07T13:10:32.515Z,29.72
2019-04-07T13:13:18.374Z,31.82
2019-04-07T13:15:52.050Z,33.02
2019-04-07T13:18:38.977Z,29.00
2019-04-07T13:21:11.666Z,29.35
2019-04-07T13:23:53.895Z,29.98
2019-04-07T13:26:36.610Z,29.52
2019-04-07T13:29:12.945Z,27.37
2019-04-07T13:31:45.969Z,29.52
2019-04-07T13:34:16.616Z,24.27
2019-04-07T13:36:46.629Z,21.62
2019-04-07T13:39:26.028Z,26.82
2019-04-07T13:42:00.671Z,21.30
2019-04-07T13:44:33.521Z,25.02
2019-04-07T13:47:07.234Z,20.40
2019-04-07T13:49:55.271Z,20.57
2019-04-07T13:52:27.913Z,20.77
2019-04-07T13:55:08.642Z,20.15
2019-04-07T13:57:58.109Z,19.40
2019-04-07T14:00:32.770Z,19.98
2019-04-07T14:03:02.736Z,23.52
2019-04-07T14:05:49.151Z,18.00
2019-04-07T14:08:34.976Z,16.87
2019-04-07T14:11:08.405Z,17.98
2019-04-07T14:13:39.531Z,20.08
2019-04-07T14:16:11.106Z,16.27
2019-04-07T14:18:59.464Z,21.07
2019-04-07T14:21:38.657Z,18.07
2019-04-07T14:24:14.336Z,19.23
2019-04-07T14:26:49.938Z,17.05
2019-04-07T14:29:39.474Z,16.77
2019-04-07T14:32:13.098Z,17.42
2019-04-07T14:34:43.125Z,18.75
2019-04-07T14:37:13.008Z,17.15
2019-04-07T14:39:45.628Z,17.40
2019-04-07T14:42:18.751Z,17.62
2019-04-07T14:44:55.321Z,17.52
2019-04-07T14:47:28.437Z,17.37
2019-04-07T14:50:01.966Z,17.57
2019-04-07T14:52:48.200Z,18.23
2019-04-07T14:55:37.886Z,16.23
2019-04-07T14:58:17.426Z,19.45
2019-04-07T15:00:45.121Z,17.77
2019-04-07T15:03:13.840Z,19.55
2019-04-07T15:05:43.822Z,18.45
2019-04-07T15:08:19.461Z,17.55
2019-04-07T15:10:50.177Z,17.30
2019-04-07T15:13:23.874Z,20.23
2019-04-07T15:15:51.437Z,17.92
2019-04-07T15:18:21.417Z,19.90
2019-04-07T15:20:50.562Z,20.00
2019-04-07T15:23:19.756Z,18.07
2019-04-07T15:25:48.145Z,19.65
2019-04-07T15:28:16.373Z,17.73
2019-04-07T15:30:47.868Z,20.23
2019-04-07T15:33:14.615Z,23.15
2019-04-07T15:35:47.857Z,18.92
2019-04-07T15:38:12.819Z,20.77
2019-04-07T15:40:41.041Z,22.73
2019-04-07T15:43:11.297Z,22.25
2019-04-07T15:45:39.716Z,19.42
2019-04-07T15:48:10.247Z,20.97
2019-04-07T15:50:39.560Z,22.20
2019-04-07T15:53:07.936Z,19.42
2019-04-07T15:55:45.836Z,19.87
2019-04-07T15:58:06.158Z,21.00
2019-04-07T16:00:35.281Z,19.17
2019-04-07T16:03:04.302Z,18.67
2019-04-07T16:05:40.003Z,22.13
2019-04-07T16:08:02.853Z,19.05
2019-04-07T16:10:31.292Z,19.07
2019-04-07T16:12:59.843Z,21.37
2019-04-07T16:15:28.157Z,20.17
2019-04-07T16:17:56.719Z,20.00
2019-04-07T16:20:31.393Z,23.90
2019-04-07T16:22:55.475Z,23.65
2019-04-07T16:25:27.583Z,22.77
2019-04-07T16:27:54.557Z,19.30
2019-04-07T16:30:23.404Z,28.40
2019-04-07T16:32:52.412Z,19.48
2019-04-07T16:35:20.734Z,19.17
2019-04-07T16:37:49.123Z,23.02
2019-04-07T16:40:17.379Z,17.52
2019-04-07T16:43:00.481Z,18.73
2019-04-07T16:45:17.820Z,19.55
2019-04-07T16:47:45.660Z,19.80
2019-04-07T16:50:18.014Z,19.15
2019-04-07T16:52:44.342Z,22.42
2019-04-07T16:55:35.537Z,19.75
2019-04-07T16:58:04.149Z,22.22
2019-04-07T17:00:32.455Z,19.90
2019-04-07T17:03:01.325Z,18.50
2019-04-07T17:05:30.243Z,21.62
2019-04-07T17:07:59.441Z,19.20
2019-04-07T17:10:30.959Z,21.17
2019-04-07T17:13:00.410Z,20.57
2019-04-07T17:15:28.474Z,21.15
2019-04-07T17:17:57.027Z,19.27
2019-04-07T17:20:27.826Z,19.85
2019-04-07T17:22:56.764Z,22.00
2019-04-07T17:25:25.570Z,19.37
2019-04-07T17:27:53.936Z,21.97
2019-04-07T17:30:25.324Z,17.98
2019-04-07T17:32:53.323Z,17.52
2019-04-07T17:35:21.800Z,18.60
2019-04-07T17:37:50.669Z,19.30
2019-04-07T17:40:23.183Z,18.57
2019-04-07T17:42:53.055Z,20.25
2019-04-07T17:45:23.596Z,18.15
2019-04-07T17:48:10.009Z,18.77
2019-04-07T17:51:01.083Z,19.05
2019-04-07T17:53:31.661Z,19.02
2019-04-07T17:56:05.459Z,19.37
2019-04-07T17:58:47.862Z,19.17
2019-04-07T18:01:35.821Z,20.00
2019-04-07T18:04:21.671Z,19.75
2019-04-07T18:06:59.398Z,21.25
2019-04-07T18:09:29.806Z,19.37
2019-04-07T18:12:10.981Z,20.23
2019-04-07T18:14:57.342Z,22.70
2019-04-07T18:17:30.041Z,21.25
2019-04-07T18:22:45.275Z,21.20
2019-04-07T18:25:17.273Z,19.73
2019-04-07T18:27:54.583Z,21.27
2019-04-07T18:30:30.473Z,23.02
2019-04-07T18:32:59.751Z,19.32
2019-04-07T18:35:43.172Z,20.20
2019-04-07T18:38:17.406Z,21.70
2019-04-07T18:43:21.875Z,22.20
2019-04-07T18:45:59.090Z,23.30
2019-04-07T18:48:49.095Z,22.70
2019-04-07T18:51:20.426Z,20.80
2019-04-07T18:53:51.957Z,22.10
2019-04-07T18:56:35.305Z,20.50
2019-04-07T18:59:20.139Z,21.45
2019-04-07T19:02:13.153Z,22.48
2019-04-07T19:05:02.680Z,22.67
2019-04-07T19:08:07.256Z,21.23
2019-04-07T19:10:41.469Z,23.75
2019-04-07T19:13:18.561Z,21.82
2019-04-07T19:15:53.989Z,21.65
2019-04-07T19:18:32.570Z,20.50
2019-04-07T19:21:13.380Z,20.60
2019-04-07T19:23:43.706Z,23.87
2019-04-07T19:26:29.011Z,26.77
2019-04-07T19:29:08.378Z,23.38
2019-04-07T19:31:59.705Z,23.15
2019-04-07T19:34:50.489Z,22.98
2019-04-07T19:37:40.124Z,25.75
2019-04-07T19:40:17.720Z,22.40
2019-04-07T19:43:04.468Z,22.05
2019-04-07T19:45:35.839Z,20.57
2019-04-07T19:48:11.481Z,21.30
2019-04-07T19:51:01.551Z,22.80
2019-04-07T19:53:36.581Z,23.15
2019-04-07T19:56:17.279Z,24.00
2019-04-07T19:59:08.210Z,24.70
2019-04-07T20:01:59.054Z,26.90
2019-04-07T20:04:37.369Z,25.37
2019-04-07T20:07:15.803Z,25.72
2019-04-07T20:10:03.426Z,24.75
2019-04-07T20:12:42.956Z,26.15
2019-04-07T20:15:31.688Z,26.20
2019-04-07T20:18:18.733Z,25.57
2019-04-07T20:20:58.793Z,25.52
2019-04-07T20:23:48.357Z,23.18
2019-04-07T20:26:26.201Z,23.22
2019-04-07T20:29:03.125Z,22.55
2019-04-07T20:31:34.304Z,24.82
2019-04-07T20:34:06.117Z,21.95
2019-04-07T20:36:54.849Z,24.00
2019-04-07T20:39:33.800Z,21.60
2019-04-07T20:42:18.225Z,22.95
2019-04-07T20:45:04.180Z,21.33
2019-04-07T20:47:49.403Z,23.10
2019-04-07T20:50:34.168Z,22.98
2019-04-07T20:53:21.615Z,21.62
2019-04-07T20:55:53.975Z,17.13
2019-04-07T20:58:25.401Z,22.50
2019-04-07T21:01:11.295Z,22.30
2019-04-07T21:03:49.330Z,16.50
2019-04-07T21:06:19.609Z,21.68
2019-04-07T21:09:06.022Z,22.45
2019-04-07T21:11:47.378Z,22.70
2019-04-07T21:14:19.667Z,22.90
2019-04-07T21:17:07.413Z,21.00
2019-04-07T21:19:52.649Z,21.17
2019-04-07T21:22:22.823Z,21.17
2019-04-07T21:25:04.775Z,21.60
2019-04-07T21:27:36.075Z,20.48
2019-04-07T21:30:24.906Z,22.13
2019-04-07T21:32:57.680Z,21.65
2019-04-07T21:35:35.398Z,20.95
2019-04-07T21:38:18.288Z,21.30
2019-04-07T21:40:48.639Z,21.10
2019-04-07T21:43:34.853Z,21.62
2019-04-07T21:46:11.148Z,22.75
2019-04-07T21:48:44.215Z,23.85
2019-04-07T21:51:31.078Z,23.05
2019-04-07T21:54:09.973Z,23.98
2019-04-07T21:56:43.090Z,22.35
2019-04-07T21:59:14.188Z,21.65
2019-04-07T22:01:44.059Z,21.17
2019-04-07T22:04:21.034Z,20.85
2019-04-07T22:06:51.125Z,20.95
2019-04-07T22:09:20.994Z,21.05
2019-04-07T22:11:49.473Z,21.45
2019-04-07T22:14:18.708Z,20.15
2019-04-07T22:16:47.238Z,22.95
2019-04-07T22:19:16.645Z,21.97
2019-04-07T22:21:45.542Z,23.85
2019-04-07T22:24:13.831Z,23.62
2019-04-07T22:26:46.969Z,21.33
2019-04-07T22:29:12.047Z,20.32
2019-04-07T22:31:46.091Z,22.22
2019-04-07T22:34:15.199Z,20.65
2019-04-07T22:36:45.494Z,20.45
2019-04-07T22:39:14.134Z,20.97
2019-04-07T22:41:44.203Z,20.37
2019-04-07T22:44:13.349Z,21.87
2019-04-07T22:46:41.708Z,22.60
2019-04-07T22:49:10.013Z,20.82
2019-04-07T22:51:38.249Z,20.95
2019-04-07T22:54:06.490Z,22.10
2019-04-07T22:56:37.501Z,21.40
2019-04-07T22:59:05.727Z,20.43
2019-04-07T23:01:34.289Z,20.68
2019-04-07T23:04:03.471Z,20.00
2019-04-07T23:06:31.833Z,19.20
2019-04-07T23:09:00.061Z,18.98
2019-04-07T23:11:28.305Z,19.02
2019-04-07T23:13:56.542Z,19.75
2019-04-07T23:16:24.782Z,16.82
2019-04-07T23:18:53.009Z,19.12
2019-04-07T23:21:21.244Z,18.07
2019-04-07T23:23:50.305Z,19.50
2019-04-07T23:26:18.625Z,18.07
2019-04-07T23:28:47.209Z,19.57
2019-04-07T23:31:16.029Z,19.82
2019-04-07T23:33:44.299Z,20.27
2019-04-07T23:36:12.571Z,18.92
2019-04-07T23:38:41.124Z,19.75
2019-04-07T23:41:09.674Z,18.67
2019-04-07T23:43:37.916Z,19.62
2019-04-07T23:46:10.135Z,19.67
2019-04-07T23:48:36.108Z,20.52
2019-04-07T23:51:04.421Z,20.30
2019-04-07T23:54:09.431Z,21.97
2019-04-07T23:56:39.344Z,23.92
2019-04-07T23:59:08.157Z,18.30
